Time;durP1;ratioP1;P1;durP2;ratioP2;P2;SDS_P1;SDS_P2;PMS_P1;PMS_P2;Temp;Humidity;BMP_temperature;BMP_pressure;BME280_temperature;BME280_humidity;BME280_pressure;Samples;Min_cycle;Max_cycle;Signal;HPM_P1;HPM_P2
2022/04/10 00:02:10;;;;;;;1.50;1.10;;;;;;;;;;6260049;28;20119;-71
2022/04/10 00:05:12;;;;;;;1.95;1.15;;;;;;;;;;6261747;28;20506;-71
2022/04/10 00:08:14;;;;;;;2.33;1.25;;;;;;;;;;6260575;28;20056;-71
2022/04/10 00:11:15;;;;;;;1.60;0.93;;;;;;;;;;6261185;28;20080;-72
2022/04/10 00:14:17;;;;;;;3.92;1.40;;;;;;;;;;6257094;28;20057;-71
2022/04/10 00:17:20;;;;;;;3.20;1.20;;;;;;;;;;6260231;28;20158;-72
2022/04/10 00:20:22;;;;;;;4.47;1.10;;;;;;;;;;6259391;28;20083;-73
2022/04/10 00:23:24;;;;;;;3.40;1.00;;;;;;;;;;6258008;28;20072;-71
2022/04/10 00:26:25;;;;;;;2.67;1.20;;;;;;;;;;6258714;28;20061;-73
2022/04/10 00:29:27;;;;;;;1.35;1.13;;;;;;;;;;6260592;28;20056;-72
2022/04/10 00:32:30;;;;;;;2.13;1.40;;;;;;;;;;6261957;28;20084;-72
2022/04/10 00:35:32;;;;;;;3.33;1.45;;;;;;;;;;6253947;28;20077;-71
2022/04/10 00:38:33;;;;;;;3.22;1.20;;;;;;;;;;6250896;28;20053;-71
2022/04/10 00:41:35;;;;;;;3.45;1.10;;;;;;;;;;6257033;28;20139;-72
2022/04/10 00:44:37;;;;;;;3.10;1.30;;;;;;;;;;6256305;28;20128;-72
2022/04/10 00:47:40;;;;;;;2.40;1.42;;;;;;;;;;6257252;28;20500;-72
2022/04/10 00:51:40;;;;;;;3.63;1.98;;;;;;;;;;6257207;28;20060;-72
2022/04/10 00:54:03;;;;;;;2.88;1.90;;;;;;;;;;6254171;28;20049;-72
2022/04/10 00:57:06;;;;;;;3.22;1.90;;;;;;;;;;6255760;28;20064;-72
2022/04/10 01:00:10;;;;;;;2.97;1.35;;;;;;;;;;6259487;28;20071;-72
2022/04/10 01:03:13;;;;;;;4.20;1.60;;;;;;;;;;6260338;28;20057;-72
2022/04/10 01:06:15;;;;;;;5.38;1.77;;;;;;;;;;6260710;28;20128;-72
2022/04/10 01:09:17;;;;;;;3.30;1.55;;;;;;;;;;6261969;28;20546;-72
2022/04/10 01:12:19;;;;;;;2.88;1.20;;;;;;;;;;6261688;28;20103;-72
2022/04/10 01:15:23;;;;;;;3.58;1.60;;;;;;;;;;6260857;28;20135;-72
2022/04/10 01:18:26;;;;;;;2.50;1.60;;;;;;;;;;6264669;28;20124;-72
2022/04/10 01:21:29;;;;;;;6.05;1.98;;;;;;;;;;6260594;28;20124;-72
2022/04/10 01:24:35;;;;;;;2.58;1.70;;;;;;;;;;6256629;28;20300;-72
2022/04/10 01:27:38;;;;;;;4.85;1.80;;;;;;;;;;6266308;28;20045;-72
2022/04/10 01:30:39;;;;;;;1.63;1.30;;;;;;;;;;6257184;28;20515;-72
2022/04/10 01:33:41;;;;;;;2.05;1.58;;;;;;;;;;6255109;28;20056;-73
2022/04/10 01:36:43;;;;;;;1.60;1.50;;;;;;;;;;6251387;28;20107;-72
2022/04/10 01:39:46;;;;;;;2.17;1.50;;;;;;;;;;6251733;28;20068;-72
2022/04/10 01:42:48;;;;;;;2.53;1.38;;;;;;;;;;6252777;28;20057;-72
2022/04/10 01:45:50;;;;;;;3.63;1.80;;;;;;;;;;6254182;28;20093;-72
2022/04/10 01:48:51;;;;;;;4.25;1.70;;;;;;;;;;6252143;28;20048;-72
2022/04/10 01:51:53;;;;;;;2.75;1.83;;;;;;;;;;6255579;28;20053;-72
2022/04/10 01:54:56;;;;;;;2.88;1.98;;;;;;;;;;6257182;28;20500;-72
2022/04/10 01:57:57;;;;;;;5.43;1.80;;;;;;;;;;6252877;28;20041;-72
2022/04/10 02:01:02;;;;;;;2.97;1.60;;;;;;;;;;6256075;28;20129;-71
2022/04/10 02:04:03;;;;;;;;;;;;;;;;;;6257088;28;20118;-72
2022/04/10 02:07:05;;;;;;;4.38;1.60;;;;;;;;;;6259285;28;20008;-72
2022/04/10 02:10:08;;;;;;;4.40;1.70;;;;;;;;;;6258896;28;20556;-72
2022/04/10 02:13:10;;;;;;;3.73;1.67;;;;;;;;;;6261560;28;20068;-72
2022/04/10 02:16:13;;;;;;;4.95;1.90;;;;;;;;;;6259553;28;20136;-72
2022/04/10 02:19:14;;;;;;;4.32;1.70;;;;;;;;;;6260262;28;20565;-72
2022/04/10 02:22:16;;;;;;;6.22;1.80;;;;;;;;;;6263688;28;20116;-72
2022/04/10 02:25:19;;;;;;;5.35;2.00;;;;;;;;;;6265500;28;20187;-72
2022/04/10 02:28:20;;;;;;;2.17;1.60;;;;;;;;;;6261485;28;20118;-72
2022/04/10 02:31:22;;;;;;;2.70;1.92;;;;;;;;;;6263390;28;20063;-71
2022/04/10 02:34:24;;;;;;;4.82;2.10;;;;;;;;;;6260557;28;20514;-72
2022/04/10 02:37:26;;;;;;;5.88;2.03;;;;;;;;;;6257524;28;20081;-72
2022/04/10 02:40:29;;;;;;;2.92;2.50;;;;;;;;;;6257807;28;20174;-72
2022/04/10 02:43:30;;;;;;;3.47;1.67;;;;;;;;;;6254568;28;20140;-72
2022/04/10 02:46:32;;;;;;;2.88;2.28;;;;;;;;;;6257528;28;20048;-72
2022/04/10 02:49:34;;;;;;;3.15;1.98;;;;;;;;;;6254562;28;20400;-71
2022/04/10 02:52:35;;;;;;;5.25;1.90;;;;;;;;;;6259638;28;20122;-72
2022/04/10 02:55:38;;;;;;;4.22;2.03;;;;;;;;;;6257749;28;20180;-72
2022/04/10 02:58:40;;;;;;;3.97;1.80;;;;;;;;;;6254135;28;20102;-73
2022/04/10 03:01:42;;;;;;;3.33;2.00;;;;;;;;;;6255647;28;20053;-73
2022/04/10 03:04:43;;;;;;;2.85;1.90;;;;;;;;;;6256517;28;20053;-72
2022/04/10 03:07:45;;;;;;;4.43;2.13;;;;;;;;;;6258428;28;20045;-73
2022/04/10 03:10:48;;;;;;;3.63;2.63;;;;;;;;;;6259541;28;20049;-72
2022/04/10 03:13:50;;;;;;;3.58;2.17;;;;;;;;;;6256105;28;20505;-72
2022/04/10 03:16:51;;;;;;;3.63;2.00;;;;;;;;;;6259609;28;20180;-72
2022/04/10 03:19:53;;;;;;;3.83;2.28;;;;;;;;;;6258434;28;20037;-72
2022/04/10 03:22:54;;;;;;;3.38;2.05;;;;;;;;;;6259213;28;20522;-72
2022/04/10 03:25:57;;;;;;;3.22;2.13;;;;;;;;;;6259705;28;20142;-72
2022/04/10 03:28:59;;;;;;;3.80;2.15;;;;;;;;;;6259852;28;20150;-72
2022/04/10 03:32:01;;;;;;;3.53;2.25;;;;;;;;;;6256942;28;20041;-72
2022/04/10 03:35:03;;;;;;;2.75;2.10;;;;;;;;;;6259098;28;20420;-72
2022/04/10 03:38:04;;;;;;;2.53;2.00;;;;;;;;;;6257682;28;20049;-72
2022/04/10 03:41:07;;;;;;;3.13;2.08;;;;;;;;;;6261178;28;20056;-72
2022/04/10 03:44:09;;;;;;;2.90;2.20;;;;;;;;;;6262273;28;20176;-72
2022/04/10 03:47:10;;;;;;;3.58;1.92;;;;;;;;;;6261614;28;20225;-72
2022/04/10 03:50:12;;;;;;;2.40;2.00;;;;;;;;;;6261213;28;20132;-72
2022/04/10 03:53:14;;;;;;;2.67;2.10;;;;;;;;;;6261988;28;20064;-72
2022/04/10 03:56:17;;;;;;;4.25;2.08;;;;;;;;;;6265879;28;20071;-72
2022/04/10 03:59:18;;;;;;;4.72;2.25;;;;;;;;;;6256191;28;20068;-72
2022/04/10 04:02:22;;;;;;;3.55;2.10;;;;;;;;;;6257570;28;20124;-73
2022/04/10 04:05:24;;;;;;;3.17;2.30;;;;;;;;;;6257113;28;20045;-73
2022/04/10 04:08:25;;;;;;;4.75;2.60;;;;;;;;;;6257704;28;20413;-72
2022/04/10 04:11:28;;;;;;;4.22;2.45;;;;;;;;;;6257921;28;20056;-71
2022/04/10 04:14:30;;;;;;;4.05;2.58;;;;;;;;;;6262135;28;20076;-71
2022/04/10 04:17:32;;;;;;;4.30;2.70;;;;;;;;;;6261385;28;20352;-73
2022/04/10 04:20:33;;;;;;;4.53;2.50;;;;;;;;;;6261218;28;20459;-72
2022/04/10 04:23:35;;;;;;;8.23;2.85;;;;;;;;;;6257657;28;20191;-72
2022/04/10 04:26:38;;;;;;;4.78;2.80;;;;;;;;;;6257845;28;20061;-72
2022/04/10 04:29:40;;;;;;;5.50;2.80;;;;;;;;;;6260025;28;20496;-73
2022/04/10 04:32:41;;;;;;;5.38;2.80;;;;;;;;;;6254455;28;20073;-72
2022/04/10 04:35:43;;;;;;;3.53;2.75;;;;;;;;;;6256235;28;20076;-73
2022/04/10 04:38:45;;;;;;;4.95;3.33;;;;;;;;;;6253061;28;20053;-72
2022/04/10 04:41:48;;;;;;;4.07;2.92;;;;;;;;;;6255895;28;20091;-72
2022/04/10 04:44:49;;;;;;;4.13;3.15;;;;;;;;;;6256496;28;20049;-72
2022/04/10 04:47:51;;;;;;;4.82;3.13;;;;;;;;;;6256904;28;20131;-72
2022/04/10 04:50:52;;;;;;;9.23;3.05;;;;;;;;;;6258764;28;20064;-72
2022/04/10 04:53:54;;;;;;;6.53;3.40;;;;;;;;;;6260297;28;20057;-72
2022/04/10 04:56:57;;;;;;;4.78;3.17;;;;;;;;;;6261892;28;20446;-73
2022/04/10 04:59:59;;;;;;;4.97;3.17;;;;;;;;;;6262432;28;20044;-74
2022/04/10 05:03:00;;;;;;;4.85;3.08;;;;;;;;;;6263803;28;21033;-72
2022/04/10 05:06:02;;;;;;;6.45;3.17;;;;;;;;;;6264839;28;20455;-72
2022/04/10 05:09:04;;;;;;;6.95;3.20;;;;;;;;;;6265960;28;20126;-72
2022/04/10 05:12:09;;;;;;;4.90;3.83;;;;;;;;;;6267754;28;20128;-72
2022/04/10 05:15:10;;;;;;;6.68;4.03;;;;;;;;;;6263197;28;20141;-71
2022/04/10 05:18:13;;;;;;;6.05;3.72;;;;;;;;;;6257854;28;20637;-72
2022/04/10 05:21:15;;;;;;;6.22;3.63;;;;;;;;;;6258688;28;20146;-72
2022/04/10 05:24:16;;;;;;;5.15;3.67;;;;;;;;;;6263660;28;20432;-71
2022/04/10 05:27:19;;;;;;;6.65;3.53;;;;;;;;;;6261601;28;20076;-72
2022/04/10 05:30:22;;;;;;;4.57;3.50;;;;;;;;;;6260352;28;20201;-71
2022/04/10 05:33:24;;;;;;;5.40;3.65;;;;;;;;;;6256830;28;20171;-71
2022/04/10 05:36:25;;;;;;;6.20;3.72;;;;;;;;;;6259254;28;20048;-71
2022/04/10 05:39:27;;;;;;;5.07;4.18;;;;;;;;;;6256859;28;20056;-72
2022/04/10 05:42:30;;;;;;;4.90;3.75;;;;;;;;;;6257912;28;20049;-68
2022/04/10 05:45:31;;;;;;;7.80;3.83;;;;;;;;;;6258066;28;20057;-73
2022/04/10 05:48:33;;;;;;;6.43;4.00;;;;;;;;;;6257861;28;20055;-70
2022/04/10 05:51:35;;;;;;;7.20;3.85;;;;;;;;;;6259579;28;20119;-72
2022/04/10 05:54:36;;;;;;;4.63;3.25;;;;;;;;;;6259580;28;20056;-73
2022/04/10 05:57:40;;;;;;;4.57;3.33;;;;;;;;;;6261132;28;20049;-73
2022/04/10 06:00:41;;;;;;;5.40;4.35;;;;;;;;;;6261609;28;20179;-72
2022/04/10 06:03:43;;;;;;;5.75;3.95;;;;;;;;;;6261735;28;20202;-72
2022/04/10 06:06:45;;;;;;;5.85;4.20;;;;;;;;;;6263726;28;20452;-71
2022/04/10 06:09:46;;;;;;;5.32;4.30;;;;;;;;;;6263704;28;20048;-71
2022/04/10 06:12:49;;;;;;;5.35;4.30;;;;;;;;;;6265915;28;20041;-71
2022/04/10 06:15:51;;;;;;;6.00;4.00;;;;;;;;;;6261875;28;20052;-71
2022/04/10 06:18:52;;;;;;;7.13;4.63;;;;;;;;;;6266203;28;20154;-72
2022/04/10 06:21:54;;;;;;;6.70;4.45;;;;;;;;;;6267829;28;20084;-71
2022/04/10 06:24:56;;;;;;;6.78;4.32;;;;;;;;;;6269038;28;20178;-71
2022/04/10 06:27:59;;;;;;;8.60;5.28;;;;;;;;;;6264150;28;20081;-71
2022/04/10 06:31:01;;;;;;;7.00;4.78;;;;;;;;;;6252408;28;20147;-71
2022/04/10 06:34:02;;;;;;;6.15;4.30;;;;;;;;;;6253110;28;20088;-71
2022/04/10 06:37:04;;;;;;;8.20;4.88;;;;;;;;;;6254169;28;20049;-71
2022/04/10 06:40:07;;;;;;;6.32;4.65;;;;;;;;;;6248318;28;20095;-71
2022/04/10 06:43:10;;;;;;;5.93;4.32;;;;;;;;;;6250739;28;20130;-72
2022/04/10 06:46:12;;;;;;;6.38;4.20;;;;;;;;;;6251953;28;20508;-71
2022/04/10 06:49:13;;;;;;;5.60;4.90;;;;;;;;;;6253430;28;20057;-71
2022/04/10 06:52:15;;;;;;;6.20;4.68;;;;;;;;;;6255605;28;20056;-71
2022/04/10 06:55:17;;;;;;;6.18;4.32;;;;;;;;;;6255251;28;20852;-71
2022/04/10 06:58:22;;;;;;;4.78;4.10;;;;;;;;;;6254916;28;20171;-70
2022/04/10 07:01:24;;;;;;;6.07;5.28;;;;;;;;;;6255212;28;20045;-71
2022/04/10 07:04:25;;;;;;;5.68;4.68;;;;;;;;;;6254812;28;20056;-70
2022/04/10 07:07:27;;;;;;;5.28;4.30;;;;;;;;;;6256471;28;20124;-71
2022/04/10 07:10:29;;;;;;;6.60;4.65;;;;;;;;;;6260221;28;20144;-70
2022/04/10 07:13:32;;;;;;;7.20;5.32;;;;;;;;;;6259272;28;20056;-70
2022/04/10 07:16:33;;;;;;;5.03;4.28;;;;;;;;;;6264082;28;20060;-70
2022/04/10 07:19:35;;;;;;;9.00;4.70;;;;;;;;;;6261882;28;20052;-71
2022/04/10 07:25:56;;;;;;;5.20;4.50;;;;;;;;;;6265429;28;20036;-72
2022/04/10 07:28:59;;;;;;;6.40;5.00;;;;;;;;;;6258722;28;20041;-72
2022/04/10 07:32:00;;;;;;;5.90;4.55;;;;;;;;;;6258341;28;20048;-74
2022/04/10 07:35:03;;;;;;;9.32;4.43;;;;;;;;;;6253534;28;20545;-74
2022/04/10 07:38:05;;;;;;;5.38;4.55;;;;;;;;;;6255014;28;20397;-75
2022/04/10 07:41:06;;;;;;;5.15;4.47;;;;;;;;;;6258189;28;20057;-75
2022/04/10 07:44:09;;;;;;;4.35;3.90;;;;;;;;;;6258428;28;20452;-76
2022/04/10 07:47:26;;;;;;;5.88;4.45;;;;;;;;;;6254819;28;20132;-75
2022/04/10 07:50:29;;;;;;;5.10;4.35;;;;;;;;;;6253692;28;20136;-76
2022/04/10 07:53:30;;;;;;;4.85;4.35;;;;;;;;;;6252991;28;20444;-75
2022/04/10 07:56:32;;;;;;;6.53;4.93;;;;;;;;;;6250747;28;20058;-76
2022/04/10 07:59:35;;;;;;;4.75;4.25;;;;;;;;;;6254846;28;20132;-75
2022/04/10 08:02:38;;;;;;;6.20;4.47;;;;;;;;;;6257312;28;20046;-75
2022/04/10 08:05:39;;;;;;;4.87;4.17;;;;;;;;;;6256672;28;20549;-76
2022/04/10 08:08:41;;;;;;;5.40;4.05;;;;;;;;;;6257943;28;20052;-76
2022/04/10 08:11:43;;;;;;;5.13;4.50;;;;;;;;;;6259838;28;20045;-76
2022/04/10 08:14:46;;;;;;;7.28;4.47;;;;;;;;;;6260940;28;20060;-75
2022/04/10 08:17:47;;;;;;;5.88;4.65;;;;;;;;;;6259474;28;20119;-76
2022/04/10 08:20:51;;;;;;;4.40;3.95;;;;;;;;;;6259806;28;20144;-76
2022/04/10 08:23:53;;;;;;;6.72;4.47;;;;;;;;;;6261925;28;20047;-76
2022/04/10 08:26:54;;;;;;;4.85;4.00;;;;;;;;;;6258830;28;20053;-76
2022/04/10 08:29:57;;;;;;;4.07;3.67;;;;;;;;;;6253303;28;20095;-76
2022/04/10 08:32:59;;;;;;;5.43;3.80;;;;;;;;;;6257958;28;20127;-76
2022/04/10 08:36:01;;;;;;;4.03;3.63;;;;;;;;;;6255780;28;20064;-76
2022/04/10 08:39:03;;;;;;;4.78;4.20;;;;;;;;;;6255911;28;20046;-76
2022/04/10 08:42:06;;;;;;;4.32;3.00;;;;;;;;;;6258650;28;20147;-76
2022/04/10 08:45:10;;;;;;;3.35;2.53;;;;;;;;;;6258650;28;20521;-77
2022/04/10 08:48:11;;;;;;;;;;;;;;;;;;6258313;28;20134;-76
2022/04/10 08:51:13;;;;;;;5.70;3.00;;;;;;;;;;6259871;28;19990;-76
2022/04/10 08:54:15;;;;;;;8.52;3.10;;;;;;;;;;6260862;28;20182;-76
2022/04/10 08:57:16;;;;;;;3.13;2.83;;;;;;;;;;6261265;28;20052;-76
2022/04/10 09:00:22;;;;;;;2.85;2.53;;;;;;;;;;6253516;28;20049;-76
2022/04/10 09:03:24;;;;;;;2.67;2.20;;;;;;;;;;6249335;28;20060;-76
2022/04/10 09:06:25;;;;;;;3.85;2.20;;;;;;;;;;6255245;28;20195;-76
2022/04/10 09:09:27;;;;;;;2.28;2.08;;;;;;;;;;6257822;28;20049;-75
2022/04/10 09:12:29;;;;;;;3.22;2.90;;;;;;;;;;6257150;28;20053;-76
2022/04/10 09:15:33;;;;;;;3.08;2.75;;;;;;;;;;6256429;28;20540;-76
2022/04/10 09:18:55;;;;;;;3.10;2.38;;;;;;;;;;6257160;28;20064;-76
2022/04/10 09:21:57;;;;;;;5.57;3.92;;;;;;;;;;6257298;28;20045;-75
2022/04/10 09:25:08;;;;;;;4.20;2.97;;;;;;;;;;6257866;28;20045;-76
2022/04/10 09:28:09;;;;;;;2.75;2.45;;;;;;;;;;6248177;28;20048;-75
2022/04/10 09:31:35;;;;;;;2.65;2.22;;;;;;;;;;6251837;28;20077;-75
2022/04/10 09:34:38;;;;;;;3.13;2.60;;;;;;;;;;6257514;28;20046;-75
2022/04/10 09:37:45;;;;;;;3.38;2.53;;;;;;;;;;6252979;28;20076;-75
2022/04/10 09:40:48;;;;;;;4.47;2.40;;;;;;;;;;6250691;28;20052;-75
2022/04/10 09:43:50;;;;;;;2.58;2.35;;;;;;;;;;6255534;28;20041;-75
2022/04/10 09:47:00;;;;;;;3.10;2.60;;;;;;;;;;6254415;28;20042;-75
2022/04/10 09:50:05;;;;;;;2.97;2.10;;;;;;;;;;6254337;28;20045;-74
2022/04/10 09:53:08;;;;;;;2.40;1.90;;;;;;;;;;6255455;28;20049;-75
2022/04/10 09:56:10;;;;;;;4.43;2.53;;;;;;;;;;6252404;28;20041;-74
2022/04/10 09:59:12;;;;;;;2.60;2.38;;;;;;;;;;6257924;28;20064;-75
2022/04/10 10:02:16;;;;;;;2.90;2.40;;;;;;;;;;6257548;28;20397;-76
2022/04/10 10:05:18;;;;;;;2.00;1.80;;;;;;;;;;6256328;28;20179;-76
2022/04/10 10:08:21;;;;;;;4.43;2.80;;;;;;;;;;6260578;28;20132;-76
2022/04/10 10:11:23;;;;;;;4.60;2.78;;;;;;;;;;6260027;28;20381;-74
2022/04/10 10:14:24;;;;;;;3.47;2.10;;;;;;;;;;6258745;28;20045;-74
2022/04/10 10:17:27;;;;;;;2.25;1.70;;;;;;;;;;6257666;28;20174;-74
2022/04/10 10:20:29;;;;;;;;;;;;;;;;;;6253288;28;20046;-74
2022/04/10 10:23:31;;;;;;;2.13;1.50;;;;;;;;;;6256384;28;20024;-74
2022/04/10 10:26:45;;;;;;;3.58;1.50;;;;;;;;;;6246654;28;20144;-74
2022/04/10 10:29:57;;;;;;;3.25;1.42;;;;;;;;;;6250314;28;20118;-74
2022/04/10 10:33:14;;;;;;;2.08;1.17;;;;;;;;;;6251838;28;20166;-74
2022/04/10 10:36:23;;;;;;;1.95;1.75;;;;;;;;;;6249647;28;20508;-75
2022/04/10 10:39:24;;;;;;;1.52;1.30;;;;;;;;;;6252401;28;20413;-73
2022/04/10 10:42:26;;;;;;;2.67;1.42;;;;;;;;;;6257465;28;20191;-73
2022/04/10 10:45:37;;;;;;;2.47;1.38;;;;;;;;;;6254994;28;20665;-72
2022/04/10 10:48:42;;;;;;;4.53;1.67;;;;;;;;;;6255366;28;20142;-74
2022/04/10 10:51:46;;;;;;;2.15;1.73;;;;;;;;;;6252171;28;20060;-74
2022/04/10 10:54:53;;;;;;;1.45;1.20;;;;;;;;;;6254307;28;20085;-73
2022/04/10 10:58:07;;;;;;;3.60;2.00;;;;;;;;;;6254669;28;20190;-70
2022/04/10 11:01:09;;;;;;;2.42;1.70;;;;;;;;;;6251622;28;20045;-67
2022/04/10 11:04:12;;;;;;;2.85;1.58;;;;;;;;;;6258235;28;20130;-75
2022/04/10 11:07:16;;;;;;;1.85;1.38;;;;;;;;;;6261061;28;20139;-67
2022/04/10 11:10:17;;;;;;;2.90;2.08;;;;;;;;;;6261519;28;20130;-75
2022/04/10 11:13:20;;;;;;;4.00;1.93;;;;;;;;;;6258379;28;20179;-73
2022/04/10 11:16:23;;;;;;;3.47;1.42;;;;;;;;;;6261986;28;20050;-74
2022/04/10 11:19:25;;;;;;;4.35;1.08;;;;;;;;;;6259728;28;20135;-74
2022/04/10 11:22:33;;;;;;;2.63;1.10;;;;;;;;;;6265083;28;20170;-73
2022/04/10 11:25:39;;;;;;;2.33;1.30;;;;;;;;;;6249000;28;20060;-71
2022/04/10 11:28:57;;;;;;;2.83;0.90;;;;;;;;;;6256821;28;20072;-70
2022/04/10 11:32:04;;;;;;;1.42;0.93;;;;;;;;;;6248220;28;20064;-71
2022/04/10 11:35:14;;;;;;;1.40;0.88;;;;;;;;;;6253876;28;20424;-72
2022/04/10 11:38:17;;;;;;;0.85;0.80;;;;;;;;;;6252749;28;20048;-70
2022/04/10 11:41:18;;;;;;;1.58;1.15;;;;;;;;;;6252157;28;20434;-74
2022/04/10 11:44:20;;;;;;;1.80;1.15;;;;;;;;;;6250455;28;20590;-74
2022/04/10 11:47:22;;;;;;;2.33;1.13;;;;;;;;;;6253718;28;20072;-71
2022/04/10 11:50:27;;;;;;;1.83;1.10;;;;;;;;;;6247551;28;20049;-72
2022/04/10 11:53:30;;;;;;;1.17;0.90;;;;;;;;;;6256526;28;20057;-71
2022/04/10 11:56:32;;;;;;;0.80;0.80;;;;;;;;;;6256810;28;20147;-71
2022/04/10 11:59:35;;;;;;;1.60;0.90;;;;;;;;;;6258145;28;20132;-70
2022/04/10 12:02:39;;;;;;;1.88;0.80;;;;;;;;;;6259979;28;20049;-74
2022/04/10 12:05:42;;;;;;;0.90;0.73;;;;;;;;;;6256025;28;20141;-75
2022/04/10 12:08:43;;;;;;;0.85;0.70;;;;;;;;;;6261552;28;20544;-73
2022/04/10 12:11:45;;;;;;;1.50;1.00;;;;;;;;;;6257647;28;20058;-76
2022/04/10 12:14:48;;;;;;;1.00;0.90;;;;;;;;;;6254197;28;20057;-78
2022/04/10 12:17:49;;;;;;;;;;;;;;;;;;6263642;28;20076;-81
2022/04/10 12:20:59;;;;;;;1.35;0.90;;;;;;;;;;6263433;28;19964;-77
2022/04/10 12:24:01;;;;;;;2.05;1.00;;;;;;;;;;6257791;28;20049;-84
2022/04/10 12:27:04;;;;;;;0.90;0.80;;;;;;;;;;6262348;28;20049;-78
2022/04/10 12:30:10;;;;;;;1.50;0.70;;;;;;;;;;6262812;28;20118;-83
2022/04/10 12:33:12;;;;;;;2.28;1.13;;;;;;;;;;6260872;28;20142;-75
2022/04/10 12:36:17;;;;;;;1.38;0.82;;;;;;;;;;6260084;28;20120;-75
2022/04/10 12:39:26;;;;;;;1.67;1.00;;;;;;;;;;6257465;28;20094;-79
2022/04/10 12:42:38;;;;;;;4.65;0.90;;;;;;;;;;6260765;28;20047;-80
2022/04/10 12:45:40;;;;;;;2.25;1.00;;;;;;;;;;6259972;28;20975;-74
2022/04/10 12:48:42;;;;;;;1.35;1.10;;;;;;;;;;6259629;28;20083;-74
2022/04/10 12:51:49;;;;;;;1.33;0.95;;;;;;;;;;6253011;28;20056;-75
2022/04/10 12:54:52;;;;;;;1.55;0.90;;;;;;;;;;6257468;28;20053;-81
2022/04/10 12:57:55;;;;;;;1.50;0.90;;;;;;;;;;6259896;28;20077;-82
2022/04/10 13:00:57;;;;;;;1.20;0.90;;;;;;;;;;6259680;28;20051;-83
2022/04/10 13:04:00;;;;;;;2.20;1.10;;;;;;;;;;6258782;28;20367;-80
2022/04/10 13:07:03;;;;;;;2.20;0.80;;;;;;;;;;6259946;28;20053;-83
2022/04/10 13:10:07;;;;;;;2.53;0.90;;;;;;;;;;6259663;28;20045;-77
2022/04/10 13:13:09;;;;;;;1.35;0.95;;;;;;;;;;6258863;28;20052;-77
2022/04/10 13:16:11;;;;;;;1.60;1.00;;;;;;;;;;6258881;28;20158;-79
2022/04/10 13:19:15;;;;;;;4.10;1.35;;;;;;;;;;6257692;28;20555;-77
2022/04/10 13:22:19;;;;;;;1.83;1.20;;;;;;;;;;6256116;28;20070;-74
2022/04/10 13:25:20;;;;;;;2.15;0.80;;;;;;;;;;6250368;28;20484;-75
2022/04/10 13:28:22;;;;;;;1.25;1.00;;;;;;;;;;6251029;28;20077;-74
2022/04/10 13:31:23;;;;;;;2.15;0.90;;;;;;;;;;6255340;28;20084;-73
2022/04/10 13:34:25;;;;;;;1.60;0.80;;;;;;;;;;6254925;28;20055;-74
2022/04/10 13:37:29;;;;;;;1.05;0.73;;;;;;;;;;6252625;28;20053;-75
2022/04/10 13:40:31;;;;;;;3.20;0.90;;;;;;;;;;6254697;28;20049;-75
2022/04/10 13:43:34;;;;;;;1.13;1.02;;;;;;;;;;6257522;28;20103;-75
2022/04/10 13:46:36;;;;;;;3.47;0.90;;;;;;;;;;6259801;28;20365;-75
2022/04/10 13:49:38;;;;;;;8.48;1.48;;;;;;;;;;6260444;28;20049;-87
2022/04/10 13:52:41;;;;;;;0.87;0.60;;;;;;;;;;6262080;28;20056;-81
2022/04/10 13:55:42;;;;;;;2.08;0.90;;;;;;;;;;6260915;28;20106;-74
2022/04/10 13:58:44;;;;;;;1.83;0.80;;;;;;;;;;6258316;28;20187;-75
2022/04/10 14:01:46;;;;;;;1.10;0.90;;;;;;;;;;6251043;28;20053;-70
2022/04/10 14:04:47;;;;;;;3.73;1.10;;;;;;;;;;6254360;28;20107;-75
2022/04/10 14:07:50;;;;;;;1.45;0.90;;;;;;;;;;6253689;28;20162;-76
2022/04/10 14:10:52;;;;;;;2.00;0.90;;;;;;;;;;6259606;28;20124;-77
2022/04/10 14:13:53;;;;;;;1.70;1.03;;;;;;;;;;6256144;28;20044;-77
2022/04/10 14:16:55;;;;;;;1.83;1.10;;;;;;;;;;6253991;28;20518;-77
2022/04/10 14:19:57;;;;;;;4.05;0.90;;;;;;;;;;6254350;28;20045;-79
2022/04/10 14:23:00;;;;;;;1.60;1.00;;;;;;;;;;6254362;28;20053;-79
2022/04/10 14:26:02;;;;;;;1.70;0.80;;;;;;;;;;6252677;28;20563;-76
2022/04/10 14:29:04;;;;;;;3.83;1.23;;;;;;;;;;6251927;28;20049;-83
2022/04/10 14:32:06;;;;;;;1.38;0.60;;;;;;;;;;6252806;28;20496;-76
2022/04/10 14:35:08;;;;;;;1.75;0.80;;;;;;;;;;6251583;28;20053;-75
2022/04/10 14:38:13;;;;;;;1.90;0.90;;;;;;;;;;6254522;28;20174;-76
2022/04/10 14:41:15;;;;;;;5.47;0.82;;;;;;;;;;6254513;28;20048;-80
2022/04/10 14:44:17;;;;;;;4.20;1.20;;;;;;;;;;6255136;28;20092;-78
2022/04/10 14:47:19;;;;;;;1.30;0.90;;;;;;;;;;6255674;28;20056;-78
2022/04/10 14:50:20;;;;;;;5.03;0.80;;;;;;;;;;6256684;28;20568;-80
2022/04/10 14:53:23;;;;;;;4.97;1.13;;;;;;;;;;6254948;28;20214;-78
2022/04/10 14:56:25;;;;;;;4.40;0.93;;;;;;;;;;6258804;28;20134;-80
2022/04/10 14:59:27;;;;;;;2.08;0.80;;;;;;;;;;6260283;28;20135;-81
2022/04/10 15:02:29;;;;;;;1.20;0.80;;;;;;;;;;6256284;28;20057;-80
2022/04/10 15:05:31;;;;;;;16.75;1.50;;;;;;;;;;6255227;28;20064;-74
2022/04/10 15:08:34;;;;;;;7.95;1.40;;;;;;;;;;6262707;28;20049;-77
2022/04/10 15:11:35;;;;;;;4.55;0.80;;;;;;;;;;6263892;28;20584;-77
2022/04/10 15:14:37;;;;;;;3.50;1.70;;;;;;;;;;6263160;28;20590;-78
2022/04/10 15:17:39;;;;;;;1.63;0.80;;;;;;;;;;6254233;28;20049;-77
2022/04/10 15:20:40;;;;;;;2.60;0.93;;;;;;;;;;6252347;28;20514;-77
2022/04/10 15:23:43;;;;;;;1.10;0.77;;;;;;;;;;6252184;28;20140;-76
2022/04/10 15:26:46;;;;;;;1.52;0.70;;;;;;;;;;6251525;28;20663;-72
2022/04/10 15:29:49;;;;;;;1.20;0.80;;;;;;;;;;6253104;28;20133;-73
2022/04/10 15:32:52;;;;;;;;;;;;;;;;;;6255587;28;20168;-71
2022/04/10 15:35:54;;;;;;;2.63;0.88;;;;;;;;;;6254285;28;19938;-71
2022/04/10 15:38:57;;;;;;;2.10;0.70;;;;;;;;;;6256036;28;20125;-72
2022/04/10 15:41:59;;;;;;;2.05;0.82;;;;;;;;;;6256262;28;20079;-72
2022/04/10 15:45:06;;;;;;;1.85;0.90;;;;;;;;;;6257486;28;20108;-72
2022/04/10 15:48:10;;;;;;;2.83;1.70;;;;;;;;;;6257676;28;20176;-72
2022/04/10 15:51:13;;;;;;;2.78;0.88;;;;;;;;;;6254131;28;20137;-72
2022/04/10 15:54:17;;;;;;;2.40;1.38;;;;;;;;;;6259366;28;20114;-70
2022/04/10 15:57:22;;;;;;;2.60;1.33;;;;;;;;;;6258608;28;20429;-72
2022/04/10 16:00:24;;;;;;;1.70;1.05;;;;;;;;;;6259172;28;20049;-75
2022/04/10 16:03:26;;;;;;;1.90;0.90;;;;;;;;;;6261680;28;20061;-72
2022/04/10 16:06:28;;;;;;;1.77;0.80;;;;;;;;;;6262945;28;20179;-71
2022/04/10 16:09:31;;;;;;;1.57;1.00;;;;;;;;;;6261192;28;20472;-74
2022/04/10 16:12:33;;;;;;;;;;;;;;;;;;6262856;28;20539;-74
2022/04/10 16:15:35;;;;;;;3.25;0.85;;;;;;;;;;6261630;28;20356;-73
2022/04/10 16:18:37;;;;;;;1.15;0.98;;;;;;;;;;6260502;28;20159;-74
2022/04/10 16:21:38;;;;;;;1.23;1.00;;;;;;;;;;6250728;28;20049;-75
2022/04/10 16:24:41;;;;;;;7.40;1.30;;;;;;;;;;6254587;28;20135;-73
2022/04/10 16:31:02;;;;;;;1.35;0.98;;;;;;;;;;6250460;28;19929;-74
2022/04/10 16:34:18;;;;;;;7.95;0.90;;;;;;;;;;6256065;28;20084;-73
2022/04/10 16:37:20;;;;;;;6.93;1.38;;;;;;;;;;6253946;28;20570;-74
2022/04/10 16:40:25;;;;;;;1.38;0.98;;;;;;;;;;6255341;28;20049;-74
2022/04/10 16:43:27;;;;;;;2.72;1.10;;;;;;;;;;6251808;28;20874;-73
2022/04/10 16:46:31;;;;;;;1.42;0.80;;;;;;;;;;6254549;28;20052;-74
2022/04/10 16:49:33;;;;;;;1.05;0.75;;;;;;;;;;6253019;28;20053;-73
2022/04/10 16:52:34;;;;;;;2.58;0.90;;;;;;;;;;6255996;28;20046;-74
2022/04/10 16:55:38;;;;;;;1.30;0.95;;;;;;;;;;6254603;28;20072;-74
2022/04/10 16:58:39;;;;;;;1.85;0.90;;;;;;;;;;6256815;28;20138;-75
2022/04/10 17:01:41;;;;;;;1.60;1.00;;;;;;;;;;6256061;28;20184;-78
2022/04/10 17:04:43;;;;;;;1.85;0.70;;;;;;;;;;6256499;28;20092;-74
2022/04/10 17:07:45;;;;;;;2.15;0.70;;;;;;;;;;6257005;28;20168;-74
2022/04/10 17:10:48;;;;;;;1.40;0.80;;;;;;;;;;6259121;28;20487;-74
2022/04/10 17:13:50;;;;;;;2.63;1.43;;;;;;;;;;6257225;28;20079;-74
2022/04/10 17:16:51;;;;;;;1.80;1.00;;;;;;;;;;6258800;28;20467;-74
2022/04/10 17:19:55;;;;;;;2.90;1.00;;;;;;;;;;6253041;28;20176;-75
2022/04/10 17:22:57;;;;;;;1.40;1.00;;;;;;;;;;6251505;28;20056;-74
2022/04/10 17:26:00;;;;;;;6.78;1.10;;;;;;;;;;6254794;28;20536;-74
2022/04/10 17:29:02;;;;;;;3.97;1.10;;;;;;;;;;6256866;28;20053;-78
2022/04/10 17:32:04;;;;;;;2.10;1.05;;;;;;;;;;6259795;28;20037;-75
2022/04/10 17:35:07;;;;;;;2.53;1.15;;;;;;;;;;6259069;28;20499;-75
2022/04/10 17:38:09;;;;;;;3.15;1.15;;;;;;;;;;6256507;28;20131;-75
2022/04/10 17:41:12;;;;;;;7.45;1.10;;;;;;;;;;6258099;28;20544;-75
2022/04/10 17:44:14;;;;;;;4.03;1.20;;;;;;;;;;6257218;28;20176;-73
2022/04/10 17:47:16;;;;;;;3.25;0.98;;;;;;;;;;6252770;28;20164;-72
2022/04/10 17:50:18;;;;;;;3.08;0.95;;;;;;;;;;6252163;28;20497;-73
2022/04/10 17:53:20;;;;;;;8.60;1.10;;;;;;;;;;6257752;28;20049;-71
2022/04/10 17:56:24;;;;;;;7.53;1.60;;;;;;;;;;6255414;28;20598;-72
2022/04/10 17:59:28;;;;;;;1.83;0.75;;;;;;;;;;6257753;28;20135;-69
2022/04/10 18:02:30;;;;;;;;;;;;;;;;;;6257477;28;20040;-72
2022/04/10 18:05:32;;;;;;;1.58;1.20;;;;;;;;;;6258302;28;19928;-71
2022/04/10 18:08:38;;;;;;;1.77;1.10;;;;;;;;;;6257531;28;20068;-71
2022/04/10 18:11:42;;;;;;;2.00;1.00;;;;;;;;;;6254128;28;20476;-72
2022/04/10 18:14:44;;;;;;;;;;;;;;;;;;6258214;28;20127;-75
2022/04/10 18:17:47;;;;;;;1.98;1.00;;;;;;;;;;6250133;28;20237;-73
2022/04/10 18:20:49;;;;;;;2.22;1.08;;;;;;;;;;6247281;28;20273;-74
2022/04/10 18:23:51;;;;;;;3.17;0.90;;;;;;;;;;6251907;28;20067;-73
2022/04/10 18:26:55;;;;;;;2.75;1.15;;;;;;;;;;6252570;28;20052;-72